sensor_id;sensor_type;location;lat;lon;timestamp;temperature;humidity
30678;DHT22;17437;47.188;8.896;2022-11-20T00:00:52;5.80;99.90
30678;DHT22;17437;47.188;8.896;2022-11-20T00:03:23;5.80;99.90
30678;DHT22;17437;47.188;8.896;2022-11-20T00:05:58;5.80;99.90
30678;DHT22;17437;47.188;8.896;2022-11-20T00:08:28;5.90;99.90
30678;DHT22;17437;47.188;8.896;2022-11-20T00:11:04;5.90;99.90
30678;DHT22;17437;47.188;8.896;2022-11-20T00:13:37;5.90;99.90
30678;DHT22;17437;47.188;8.896;2022-11-20T00:16:12;5.80;99.90
30678;DHT22;17437;47.188;8.896;2022-11-20T00:18:44;5.80;99.90
30678;DHT22;17437;47.188;8.896;2022-11-20T00:21:16;5.70;99.90
30678;DHT22;17437;47.188;8.896;2022-11-20T00:23:49;5.70;99.90
30678;DHT22;17437;47.188;8.896;2022-11-20T00:26:23;5.70;99.90
30678;DHT22;17437;47.188;8.896;2022-11-20T00:28:56;5.70;99.90
30678;DHT22;17437;47.188;8.896;2022-11-20T00:31:28;5.60;99.90
30678;DHT22;17437;47.188;8.896;2022-11-20T00:34:00;5.60;99.90
30678;DHT22;17437;47.188;8.896;2022-11-20T00:36:34;5.60;99.90
30678;DHT22;17437;47.188;8.896;2022-11-20T00:39:05;5.60;99.90
30678;DHT22;17437;47.188;8.896;2022-11-20T00:41:37;5.70;99.90
30678;DHT22;17437;47.188;8.896;2022-11-20T00:44:08;5.70;99.90
30678;DHT22;17437;47.188;8.896;2022-11-20T00:46:39;5.80;99.90
30678;DHT22;17437;47.188;8.896;2022-11-20T00:49:10;5.80;99.90
30678;DHT22;17437;47.188;8.896;2022-11-20T00:51:42;5.70;99.90
30678;DHT22;17437;47.188;8.896;2022-11-20T00:54:13;5.80;99.90
30678;DHT22;17437;47.188;8.896;2022-11-20T00:56:44;5.90;99.90
30678;DHT22;17437;47.188;8.896;2022-11-20T00:59:15;5.80;99.90
30678;DHT22;17437;47.188;8.896;2022-11-20T01:01:47;5.80;99.90
30678;DHT22;17437;47.188;8.896;2022-11-20T01:04:19;5.80;99.90
30678;DHT22;17437;47.188;8.896;2022-11-20T01:06:50;5.90;99.90
30678;DHT22;17437;47.188;8.896;2022-11-20T01:09:22;5.90;99.90
30678;DHT22;17437;47.188;8.896;2022-11-20T01:11:53;6.00;99.90
30678;DHT22;17437;47.188;8.896;2022-11-20T01:14:24;6.00;99.90
30678;DHT22;17437;47.188;8.896;2022-11-20T01:16:55;6.00;99.90
30678;DHT22;17437;47.188;8.896;2022-11-20T01:19:26;6.00;99.90
30678;DHT22;17437;47.188;8.896;2022-11-20T01:21:58;6.00;99.90
30678;DHT22;17437;47.188;8.896;2022-11-20T01:24:29;5.90;99.90
30678;DHT22;17437;47.188;8.896;2022-11-20T01:27:00;5.90;99.90
30678;DHT22;17437;47.188;8.896;2022-11-20T01:29:31;5.80;99.90
30678;DHT22;17437;47.188;8.896;2022-11-20T01:32:01;5.80;99.90
30678;DHT22;17437;47.188;8.896;2022-11-20T01:34:33;5.70;99.90
30678;DHT22;17437;47.188;8.896;2022-11-20T01:37:04;5.80;99.90
30678;DHT22;17437;47.188;8.896;2022-11-20T01:39:35;5.80;99.90
30678;DHT22;17437;47.188;8.896;2022-11-20T01:42:06;5.80;99.90
30678;DHT22;17437;47.188;8.896;2022-11-20T01:44:57;5.80;99.90
30678;DHT22;17437;47.188;8.896;2022-11-20T01:47:33;5.80;99.90
30678;DHT22;17437;47.188;8.896;2022-11-20T01:50:09;5.80;99.90
30678;DHT22;17437;47.188;8.896;2022-11-20T01:52:44;5.80;99.90
30678;DHT22;17437;47.188;8.896;2022-11-20T01:55:17;5.80;99.90
30678;DHT22;17437;47.188;8.896;2022-11-20T01:57:50;5.90;99.90
30678;DHT22;17437;47.188;8.896;2022-11-20T02:00:22;5.80;99.90
30678;DHT22;17437;47.188;8.896;2022-11-20T02:02:55;5.80;99.90
30678;DHT22;17437;47.188;8.896;2022-11-20T02:05:31;5.80;99.90
30678;DHT22;17437;47.188;8.896;2022-11-20T02:08:05;5.80;99.90
30678;DHT22;17437;47.188;8.896;2022-11-20T02:10:36;5.80;99.90
30678;DHT22;17437;47.188;8.896;2022-11-20T02:13:08;5.80;99.90
30678;DHT22;17437;47.188;8.896;2022-11-20T02:15:58;5.80;99.90
30678;DHT22;17437;47.188;8.896;2022-11-20T02:18:29;5.80;99.90
30678;DHT22;17437;47.188;8.896;2022-11-20T02:21:05;5.80;99.90
30678;DHT22;17437;47.188;8.896;2022-11-20T02:23:50;5.80;99.90
30678;DHT22;17437;47.188;8.896;2022-11-20T02:26:22;5.80;99.90
30678;DHT22;17437;47.188;8.896;2022-11-20T02:28:54;5.80;99.90
30678;DHT22;17437;47.188;8.896;2022-11-20T02:31:25;5.90;99.90
30678;DHT22;17437;47.188;8.896;2022-11-20T02:34:00;5.90;99.90
30678;DHT22;17437;47.188;8.896;2022-11-20T02:36:33;5.90;99.90
30678;DHT22;17437;47.188;8.896;2022-11-20T02:39:06;5.90;99.90
30678;DHT22;17437;47.188;8.896;2022-11-20T02:41:38;5.90;99.90
30678;DHT22;17437;47.188;8.896;2022-11-20T02:44:09;5.90;99.90
30678;DHT22;17437;47.188;8.896;2022-11-20T02:46:40;5.90;99.90
30678;DHT22;17437;47.188;8.896;2022-11-20T02:49:12;5.90;99.90
30678;DHT22;17437;47.188;8.896;2022-11-20T02:51:43;5.90;99.90
30678;DHT22;17437;47.188;8.896;2022-11-20T02:54:15;5.90;99.90
30678;DHT22;17437;47.188;8.896;2022-11-20T02:56:46;5.90;99.90
30678;DHT22;17437;47.188;8.896;2022-11-20T02:59:17;5.90;99.90
30678;DHT22;17437;47.188;8.896;2022-11-20T03:01:49;5.90;99.90
30678;DHT22;17437;47.188;8.896;2022-11-20T03:04:21;5.80;99.90
30678;DHT22;17437;47.188;8.896;2022-11-20T03:06:52;5.90;99.90
30678;DHT22;17437;47.188;8.896;2022-11-20T03:09:24;5.80;99.90
30678;DHT22;17437;47.188;8.896;2022-11-20T03:11:54;5.80;99.90
30678;DHT22;17437;47.188;8.896;2022-11-20T03:14:25;5.80;99.90
30678;DHT22;17437;47.188;8.896;2022-11-20T03:16:57;5.80;99.90
30678;DHT22;17437;47.188;8.896;2022-11-20T03:19:28;5.80;99.90
30678;DHT22;17437;47.188;8.896;2022-11-20T03:22:00;5.80;99.90
30678;DHT22;17437;47.188;8.896;2022-11-20T03:24:31;5.80;99.90
30678;DHT22;17437;47.188;8.896;2022-11-20T03:27:03;5.80;99.90
30678;DHT22;17437;47.188;8.896;2022-11-20T03:29:35;5.70;99.90
30678;DHT22;17437;47.188;8.896;2022-11-20T03:32:06;5.70;99.90
30678;DHT22;17437;47.188;8.896;2022-11-20T03:34:38;5.70;99.90
30678;DHT22;17437;47.188;8.896;2022-11-20T03:37:09;5.60;99.90
30678;DHT22;17437;47.188;8.896;2022-11-20T03:39:40;5.50;99.90
30678;DHT22;17437;47.188;8.896;2022-11-20T03:42:12;5.50;99.90
30678;DHT22;17437;47.188;8.896;2022-11-20T03:45:02;5.50;99.90
30678;DHT22;17437;47.188;8.896;2022-11-20T03:47:33;5.50;99.90
30678;DHT22;17437;47.188;8.896;2022-11-20T03:50:06;5.50;99.90
30678;DHT22;17437;47.188;8.896;2022-11-20T03:52:38;5.50;99.90
30678;DHT22;17437;47.188;8.896;2022-11-20T03:55:09;5.50;99.90
30678;DHT22;17437;47.188;8.896;2022-11-20T03:57:41;5.50;99.90
30678;DHT22;17437;47.188;8.896;2022-11-20T04:02:45;5.50;99.90
30678;DHT22;17437;47.188;8.896;2022-11-20T04:05:16;5.50;99.90
30678;DHT22;17437;47.188;8.896;2022-11-20T04:07:47;5.50;99.90
30678;DHT22;17437;47.188;8.896;2022-11-20T04:10:19;5.50;99.90
30678;DHT22;17437;47.188;8.896;2022-11-20T04:12:50;5.50;99.90
30678;DHT22;17437;47.188;8.896;2022-11-20T04:15:22;5.50;99.90
30678;DHT22;17437;47.188;8.896;2022-11-20T04:17:54;5.50;99.90
30678;DHT22;17437;47.188;8.896;2022-11-20T04:20:25;5.50;99.90
30678;DHT22;17437;47.188;8.896;2022-11-20T04:22:56;5.50;99.90
30678;DHT22;17437;47.188;8.896;2022-11-20T04:25:26;5.40;99.90
30678;DHT22;17437;47.188;8.896;2022-11-20T04:27:58;5.40;99.90
30678;DHT22;17437;47.188;8.896;2022-11-20T04:30:28;5.40;99.90
30678;DHT22;17437;47.188;8.896;2022-11-20T04:32:59;5.40;99.90
30678;DHT22;17437;47.188;8.896;2022-11-20T04:35:30;5.30;99.90
30678;DHT22;17437;47.188;8.896;2022-11-20T04:38:03;5.30;99.90
30678;DHT22;17437;47.188;8.896;2022-11-20T04:40:34;5.30;99.90
30678;DHT22;17437;47.188;8.896;2022-11-20T04:43:05;5.30;99.90
30678;DHT22;17437;47.188;8.896;2022-11-20T04:45:35;5.30;99.90
30678;DHT22;17437;47.188;8.896;2022-11-20T04:48:06;5.40;99.90
30678;DHT22;17437;47.188;8.896;2022-11-20T04:50:41;5.40;99.90
30678;DHT22;17437;47.188;8.896;2022-11-20T04:53:12;5.40;99.90
30678;DHT22;17437;47.188;8.896;2022-11-20T04:55:44;5.40;99.90
30678;DHT22;17437;47.188;8.896;2022-11-20T04:58:16;5.40;99.90
30678;DHT22;17437;47.188;8.896;2022-11-20T05:00:47;5.50;99.90
30678;DHT22;17437;47.188;8.896;2022-11-20T05:03:20;5.40;99.90
30678;DHT22;17437;47.188;8.896;2022-11-20T05:05:51;5.50;99.90
30678;DHT22;17437;47.188;8.896;2022-11-20T05:08:21;5.50;99.90
30678;DHT22;17437;47.188;8.896;2022-11-20T05:10:53;5.50;99.90
30678;DHT22;17437;47.188;8.896;2022-11-20T05:13:24;5.50;99.90
30678;DHT22;17437;47.188;8.896;2022-11-20T05:15:55;5.50;99.90
30678;DHT22;17437;47.188;8.896;2022-11-20T05:18:27;5.60;99.90
30678;DHT22;17437;47.188;8.896;2022-11-20T05:20:59;5.50;99.90
30678;DHT22;17437;47.188;8.896;2022-11-20T05:23:31;5.50;99.90
30678;DHT22;17437;47.188;8.896;2022-11-20T05:26:04;5.50;99.90
30678;DHT22;17437;47.188;8.896;2022-11-20T05:28:35;5.50;99.90
30678;DHT22;17437;47.188;8.896;2022-11-20T05:31:08;5.50;99.90
30678;DHT22;17437;47.188;8.896;2022-11-20T05:36:23;5.40;99.90
30678;DHT22;17437;47.188;8.896;2022-11-20T05:38:54;5.50;99.90
30678;DHT22;17437;47.188;8.896;2022-11-20T05:41:27;5.50;99.90
30678;DHT22;17437;47.188;8.896;2022-11-20T05:43:59;5.40;99.90
30678;DHT22;17437;47.188;8.896;2022-11-20T05:46:29;5.40;99.90
30678;DHT22;17437;47.188;8.896;2022-11-20T05:49:00;5.40;99.90
30678;DHT22;17437;47.188;8.896;2022-11-20T05:51:31;5.40;99.90
30678;DHT22;17437;47.188;8.896;2022-11-20T05:54:01;5.40;99.90
30678;DHT22;17437;47.188;8.896;2022-11-20T05:56:32;5.40;99.90
30678;DHT22;17437;47.188;8.896;2022-11-20T05:59:03;5.40;99.90
30678;DHT22;17437;47.188;8.896;2022-11-20T06:01:35;5.40;99.90
30678;DHT22;17437;47.188;8.896;2022-11-20T06:04:06;5.40;99.90
30678;DHT22;17437;47.188;8.896;2022-11-20T06:06:37;5.40;99.90
30678;DHT22;17437;47.188;8.896;2022-11-20T06:09:08;5.50;99.90
30678;DHT22;17437;47.188;8.896;2022-11-20T06:11:40;5.40;99.90
30678;DHT22;17437;47.188;8.896;2022-11-20T06:14:11;5.50;99.90
30678;DHT22;17437;47.188;8.896;2022-11-20T06:16:41;5.40;99.90
30678;DHT22;17437;47.188;8.896;2022-11-20T06:19:13;5.40;99.90
30678;DHT22;17437;47.188;8.896;2022-11-20T06:21:44;5.40;99.90
30678;DHT22;17437;47.188;8.896;2022-11-20T06:24:16;5.40;99.90
30678;DHT22;17437;47.188;8.896;2022-11-20T06:26:47;5.40;99.90
30678;DHT22;17437;47.188;8.896;2022-11-20T06:29:18;5.40;99.90
30678;DHT22;17437;47.188;8.896;2022-11-20T06:31:49;5.40;99.90
30678;DHT22;17437;47.188;8.896;2022-11-20T06:34:19;5.50;99.90
30678;DHT22;17437;47.188;8.896;2022-11-20T06:36:50;5.50;99.90
30678;DHT22;17437;47.188;8.896;2022-11-20T06:39:21;5.50;99.90
30678;DHT22;17437;47.188;8.896;2022-11-20T06:41:53;5.50;99.90
30678;DHT22;17437;47.188;8.896;2022-11-20T06:44:26;5.60;99.90
30678;DHT22;17437;47.188;8.896;2022-11-20T06:46:57;5.60;99.90
30678;DHT22;17437;47.188;8.896;2022-11-20T06:49:29;5.60;99.90
30678;DHT22;17437;47.188;8.896;2022-11-20T06:52:00;5.60;99.90
30678;DHT22;17437;47.188;8.896;2022-11-20T06:54:34;5.60;99.90
30678;DHT22;17437;47.188;8.896;2022-11-20T06:57:05;5.60;99.90
30678;DHT22;17437;47.188;8.896;2022-11-20T06:59:36;5.60;99.90
30678;DHT22;17437;47.188;8.896;2022-11-20T07:02:10;5.60;99.90
30678;DHT22;17437;47.188;8.896;2022-11-20T07:04:42;5.60;99.90
30678;DHT22;17437;47.188;8.896;2022-11-20T07:07:13;5.70;99.90
30678;DHT22;17437;47.188;8.896;2022-11-20T07:09:44;5.70;99.90
30678;DHT22;17437;47.188;8.896;2022-11-20T07:12:15;5.70;99.90
30678;DHT22;17437;47.188;8.896;2022-11-20T07:14:47;5.80;99.90
30678;DHT22;17437;47.188;8.896;2022-11-20T07:17:18;5.80;99.90
30678;DHT22;17437;47.188;8.896;2022-11-20T07:19:49;5.80;99.90
30678;DHT22;17437;47.188;8.896;2022-11-20T07:22:21;5.80;99.90
30678;DHT22;17437;47.188;8.896;2022-11-20T07:24:52;5.80;99.90
30678;DHT22;17437;47.188;8.896;2022-11-20T07:27:23;5.80;99.90
30678;DHT22;17437;47.188;8.896;2022-11-20T07:29:54;5.80;99.90
30678;DHT22;17437;47.188;8.896;2022-11-20T07:32:28;5.90;99.90
30678;DHT22;17437;47.188;8.896;2022-11-20T07:35:01;5.90;99.90
30678;DHT22;17437;47.188;8.896;2022-11-20T07:37:36;5.90;99.90
30678;DHT22;17437;47.188;8.896;2022-11-20T07:40:08;5.90;99.90
30678;DHT22;17437;47.188;8.896;2022-11-20T07:42:43;6.00;99.90
30678;DHT22;17437;47.188;8.896;2022-11-20T07:45:16;6.00;99.90
30678;DHT22;17437;47.188;8.896;2022-11-20T07:47:49;6.10;99.90
30678;DHT22;17437;47.188;8.896;2022-11-20T07:50:21;6.20;99.90
30678;DHT22;17437;47.188;8.896;2022-11-20T07:53:06;6.20;99.90
30678;DHT22;17437;47.188;8.896;2022-11-20T07:55:37;6.30;99.90
30678;DHT22;17437;47.188;8.896;2022-11-20T07:58:09;6.30;99.90
30678;DHT22;17437;47.188;8.896;2022-11-20T08:00:40;6.40;99.90
30678;DHT22;17437;47.188;8.896;2022-11-20T08:03:12;6.40;99.90
30678;DHT22;17437;47.188;8.896;2022-11-20T08:05:43;6.40;99.90
30678;DHT22;17437;47.188;8.896;2022-11-20T08:08:15;6.50;99.90
30678;DHT22;17437;47.188;8.896;2022-11-20T08:10:46;6.50;99.90
30678;DHT22;17437;47.188;8.896;2022-11-20T08:13:17;6.50;99.90
30678;DHT22;17437;47.188;8.896;2022-11-20T08:16:07;6.60;99.90
30678;DHT22;17437;47.188;8.896;2022-11-20T08:18:38;6.60;99.90
30678;DHT22;17437;47.188;8.896;2022-11-20T08:21:10;6.60;99.90
30678;DHT22;17437;47.188;8.896;2022-11-20T08:23:42;6.50;99.90
30678;DHT22;17437;47.188;8.896;2022-11-20T08:26:11;6.60;99.90
30678;DHT22;17437;47.188;8.896;2022-11-20T08:28:42;6.60;99.90
30678;DHT22;17437;47.188;8.896;2022-11-20T08:31:18;6.60;99.90
30678;DHT22;17437;47.188;8.896;2022-11-20T08:33:54;6.50;99.90
30678;DHT22;17437;47.188;8.896;2022-11-20T08:36:33;6.50;99.90
30678;DHT22;17437;47.188;8.896;2022-11-20T08:39:04;6.60;99.90
30678;DHT22;17437;47.188;8.896;2022-11-20T08:41:36;6.60;99.90
30678;DHT22;17437;47.188;8.896;2022-11-20T08:44:08;6.70;99.90
30678;DHT22;17437;47.188;8.896;2022-11-20T08:46:40;6.70;99.90
30678;DHT22;17437;47.188;8.896;2022-11-20T08:49:14;6.70;99.90
30678;DHT22;17437;47.188;8.896;2022-11-20T08:51:46;6.80;99.90
30678;DHT22;17437;47.188;8.896;2022-11-20T08:54:19;6.80;99.90
30678;DHT22;17437;47.188;8.896;2022-11-20T08:56:51;6.80;99.90
30678;DHT22;17437;47.188;8.896;2022-11-20T08:59:25;6.80;99.90
30678;DHT22;17437;47.188;8.896;2022-11-20T09:01:58;6.80;99.90
30678;DHT22;17437;47.188;8.896;2022-11-20T09:04:30;6.70;99.90
30678;DHT22;17437;47.188;8.896;2022-11-20T09:07:03;6.70;99.90
30678;DHT22;17437;47.188;8.896;2022-11-20T09:09:34;6.80;99.90
30678;DHT22;17437;47.188;8.896;2022-11-20T09:12:06;6.80;99.90
30678;DHT22;17437;47.188;8.896;2022-11-20T09:14:37;6.80;99.90
30678;DHT22;17437;47.188;8.896;2022-11-20T09:17:10;6.90;99.90
30678;DHT22;17437;47.188;8.896;2022-11-20T09:19:44;6.90;99.90
30678;DHT22;17437;47.188;8.896;2022-11-20T09:22:16;7.00;99.90
30678;DHT22;17437;47.188;8.896;2022-11-20T09:24:47;7.00;99.90
30678;DHT22;17437;47.188;8.896;2022-11-20T09:27:19;7.10;99.90
30678;DHT22;17437;47.188;8.896;2022-11-20T09:29:54;7.20;99.90
30678;DHT22;17437;47.188;8.896;2022-11-20T09:32:26;7.30;99.90
30678;DHT22;17437;47.188;8.896;2022-11-20T09:34:57;7.40;99.90
30678;DHT22;17437;47.188;8.896;2022-11-20T09:37:30;7.40;99.90
30678;DHT22;17437;47.188;8.896;2022-11-20T09:40:02;7.40;99.90
30678;DHT22;17437;47.188;8.896;2022-11-20T09:42:37;7.50;99.90
30678;DHT22;17437;47.188;8.896;2022-11-20T09:45:20;7.40;99.90
30678;DHT22;17437;47.188;8.896;2022-11-20T09:50:52;7.50;99.90
30678;DHT22;17437;47.188;8.896;2022-11-20T09:53:28;7.60;99.90
30678;DHT22;17437;47.188;8.896;2022-11-20T09:56:01;7.60;99.90
30678;DHT22;17437;47.188;8.896;2022-11-20T09:58:38;7.70;99.90
30678;DHT22;17437;47.188;8.896;2022-11-20T10:01:12;7.70;99.90
30678;DHT22;17437;47.188;8.896;2022-11-20T10:03:54;7.70;99.90
30678;DHT22;17437;47.188;8.896;2022-11-20T10:06:31;7.80;99.90
30678;DHT22;17437;47.188;8.896;2022-11-20T10:09:12;7.80;99.90
30678;DHT22;17437;47.188;8.896;2022-11-20T10:11:46;7.90;99.90
30678;DHT22;17437;47.188;8.896;2022-11-20T10:14:24;8.10;99.90
30678;DHT22;17437;47.188;8.896;2022-11-20T10:17:03;8.10;99.90
30678;DHT22;17437;47.188;8.896;2022-11-20T10:19:47;8.10;99.90
30678;DHT22;17437;47.188;8.896;2022-11-20T10:22:29;8.10;99.90
30678;DHT22;17437;47.188;8.896;2022-11-20T10:25:06;8.10;99.90
30678;DHT22;17437;47.188;8.896;2022-11-20T10:28:10;8.00;99.90
30678;DHT22;17437;47.188;8.896;2022-11-20T10:30:55;8.00;99.90
30678;DHT22;17437;47.188;8.896;2022-11-20T10:33:23;8.00;99.90
30678;DHT22;17437;47.188;8.896;2022-11-20T10:36:04;8.10;99.90
30678;DHT22;17437;47.188;8.896;2022-11-20T10:38:37;8.10;99.90
30678;DHT22;17437;47.188;8.896;2022-11-20T10:41:13;8.30;99.90
30678;DHT22;17437;47.188;8.896;2022-11-20T10:44:03;8.30;99.90
30678;DHT22;17437;47.188;8.896;2022-11-20T10:46:38;8.30;99.90
30678;DHT22;17437;47.188;8.896;2022-11-20T10:49:14;8.30;99.90
30678;DHT22;17437;47.188;8.896;2022-11-20T10:51:54;8.30;99.90
30678;DHT22;17437;47.188;8.896;2022-11-20T10:54:31;8.40;99.90
30678;DHT22;17437;47.188;8.896;2022-11-20T10:57:05;8.50;99.90
30678;DHT22;17437;47.188;8.896;2022-11-20T10:59:53;8.50;99.90
30678;DHT22;17437;47.188;8.896;2022-11-20T11:02:33;8.50;99.90
30678;DHT22;17437;47.188;8.896;2022-11-20T11:05:14;8.50;99.90
30678;DHT22;17437;47.188;8.896;2022-11-20T11:07:47;8.50;99.90
30678;DHT22;17437;47.188;8.896;2022-11-20T11:10:22;8.50;99.90
30678;DHT22;17437;47.188;8.896;2022-11-20T11:12:54;8.50;99.90
30678;DHT22;17437;47.188;8.896;2022-11-20T11:15:29;8.50;99.90
30678;DHT22;17437;47.188;8.896;2022-11-20T11:18:00;8.60;99.90
30678;DHT22;17437;47.188;8.896;2022-11-20T11:20:32;8.60;99.90
30678;DHT22;17437;47.188;8.896;2022-11-20T11:23:03;8.70;99.90
30678;DHT22;17437;47.188;8.896;2022-11-20T11:25:36;8.80;99.90
30678;DHT22;17437;47.188;8.896;2022-11-20T11:28:20;8.80;99.90
30678;DHT22;17437;47.188;8.896;2022-11-20T11:30:52;8.70;99.90
30678;DHT22;17437;47.188;8.896;2022-11-20T11:33:25;8.80;99.90
30678;DHT22;17437;47.188;8.896;2022-11-20T11:36:01;8.90;99.90
30678;DHT22;17437;47.188;8.896;2022-11-20T11:38:51;8.90;99.90
30678;DHT22;17437;47.188;8.896;2022-11-20T11:41:27;9.00;99.90
30678;DHT22;17437;47.188;8.896;2022-11-20T11:44:01;9.00;99.90
30678;DHT22;17437;47.188;8.896;2022-11-20T11:46:53;9.00;99.90
30678;DHT22;17437;47.188;8.896;2022-11-20T11:49:25;8.90;99.90
30678;DHT22;17437;47.188;8.896;2022-11-20T11:52:02;8.90;99.90
30678;DHT22;17437;47.188;8.896;2022-11-20T11:54:40;8.80;99.90
30678;DHT22;17437;47.188;8.896;2022-11-20T11:57:16;8.80;99.90
30678;DHT22;17437;47.188;8.896;2022-11-20T11:59:54;8.80;99.90
30678;DHT22;17437;47.188;8.896;2022-11-20T12:02:38;8.70;99.90
30678;DHT22;17437;47.188;8.896;2022-11-20T12:05:16;8.70;99.90
30678;DHT22;17437;47.188;8.896;2022-11-20T12:07:50;8.80;99.90
30678;DHT22;17437;47.188;8.896;2022-11-20T12:10:32;8.80;99.90
30678;DHT22;17437;47.188;8.896;2022-11-20T12:13:04;8.80;99.90
30678;DHT22;17437;47.188;8.896;2022-11-20T12:15:37;8.80;99.90
30678;DHT22;17437;47.188;8.896;2022-11-20T12:18:14;8.80;99.90
30678;DHT22;17437;47.188;8.896;2022-11-20T12:20:50;8.80;99.90
30678;DHT22;17437;47.188;8.896;2022-11-20T12:23:24;8.80;99.90
30678;DHT22;17437;47.188;8.896;2022-11-20T12:26:00;8.90;99.90
30678;DHT22;17437;47.188;8.896;2022-11-20T12:28:57;8.90;99.90
30678;DHT22;17437;47.188;8.896;2022-11-20T12:31:37;8.90;99.90
30678;DHT22;17437;47.188;8.896;2022-11-20T12:34:18;8.90;99.90
30678;DHT22;17437;47.188;8.896;2022-11-20T12:36:53;8.90;99.90
30678;DHT22;17437;47.188;8.896;2022-11-20T12:39:35;8.90;99.90
30678;DHT22;17437;47.188;8.896;2022-11-20T12:45:46;9.10;99.90
30678;DHT22;17437;47.188;8.896;2022-11-20T12:48:35;9.10;99.90
30678;DHT22;17437;47.188;8.896;2022-11-20T12:57:11;9.20;99.90
30678;DHT22;17437;47.188;8.896;2022-11-20T12:59:59;9.20;99.90
30678;DHT22;17437;47.188;8.896;2022-11-20T13:02:35;9.20;99.90
30678;DHT22;17437;47.188;8.896;2022-11-20T13:05:18;9.10;99.90
30678;DHT22;17437;47.188;8.896;2022-11-20T13:07:53;9.00;99.90
30678;DHT22;17437;47.188;8.896;2022-11-20T13:10:31;8.90;99.90
30678;DHT22;17437;47.188;8.896;2022-11-20T13:13:03;8.90;99.90
30678;DHT22;17437;47.188;8.896;2022-11-20T13:15:40;9.00;99.90
30678;DHT22;17437;47.188;8.896;2022-11-20T13:18:13;9.10;99.90
30678;DHT22;17437;47.188;8.896;2022-11-20T13:20:45;9.00;99.90
30678;DHT22;17437;47.188;8.896;2022-11-20T13:23:25;8.90;99.90
30678;DHT22;17437;47.188;8.896;2022-11-20T13:26:14;8.80;99.90
30678;DHT22;17437;47.188;8.896;2022-11-20T13:28:48;8.80;99.90
30678;DHT22;17437;47.188;8.896;2022-11-20T13:31:31;8.80;99.90
30678;DHT22;17437;47.188;8.896;2022-11-20T13:34:05;8.80;99.90
30678;DHT22;17437;47.188;8.896;2022-11-20T13:36:53;8.80;99.90
30678;DHT22;17437;47.188;8.896;2022-11-20T13:39:30;8.70;99.90
30678;DHT22;17437;47.188;8.896;2022-11-20T13:42:19;8.60;99.90
30678;DHT22;17437;47.188;8.896;2022-11-20T13:44:39;8.60;99.90
30678;DHT22;17437;47.188;8.896;2022-11-20T13:47:21;8.60;99.90
30678;DHT22;17437;47.188;8.896;2022-11-20T13:49:55;8.50;99.90
30678;DHT22;17437;47.188;8.896;2022-11-20T13:52:37;8.40;99.90
30678;DHT22;17437;47.188;8.896;2022-11-20T13:55:20;8.30;99.90
30678;DHT22;17437;47.188;8.896;2022-11-20T13:58:17;8.20;99.90
30678;DHT22;17437;47.188;8.896;2022-11-20T14:00:52;8.20;99.90
30678;DHT22;17437;47.188;8.896;2022-11-20T14:03:24;8.00;99.90
30678;DHT22;17437;47.188;8.896;2022-11-20T14:06:01;8.00;99.90
30678;DHT22;17437;47.188;8.896;2022-11-20T14:08:36;7.90;99.90
30678;DHT22;17437;47.188;8.896;2022-11-20T14:11:15;7.90;99.90
30678;DHT22;17437;47.188;8.896;2022-11-20T14:16:53;7.80;99.90
30678;DHT22;17437;47.188;8.896;2022-11-20T14:19:30;7.80;99.90
30678;DHT22;17437;47.188;8.896;2022-11-20T14:22:14;7.70;99.90
30678;DHT22;17437;47.188;8.896;2022-11-20T14:24:44;7.70;99.90
30678;DHT22;17437;47.188;8.896;2022-11-20T14:27:19;7.70;99.90
30678;DHT22;17437;47.188;8.896;2022-11-20T14:29:51;7.70;99.90
30678;DHT22;17437;47.188;8.896;2022-11-20T14:32:25;7.70;99.90
30678;DHT22;17437;47.188;8.896;2022-11-20T14:34:59;7.80;99.90
30678;DHT22;17437;47.188;8.896;2022-11-20T14:37:33;7.80;99.90
30678;DHT22;17437;47.188;8.896;2022-11-20T14:40:24;7.80;99.90
30678;DHT22;17437;47.188;8.896;2022-11-20T14:42:56;7.80;99.90
30678;DHT22;17437;47.188;8.896;2022-11-20T14:45:28;7.70;99.90
30678;DHT22;17437;47.188;8.896;2022-11-20T14:48:00;7.60;99.90
30678;DHT22;17437;47.188;8.896;2022-11-20T14:50:32;7.60;99.90
30678;DHT22;17437;47.188;8.896;2022-11-20T14:53:06;7.50;99.90
30678;DHT22;17437;47.188;8.896;2022-11-20T14:55:40;7.40;99.90
30678;DHT22;17437;47.188;8.896;2022-11-20T14:58:22;7.30;99.90
30678;DHT22;17437;47.188;8.896;2022-11-20T15:00:56;7.10;99.90
30678;DHT22;17437;47.188;8.896;2022-11-20T15:03:33;7.00;99.90
30678;DHT22;17437;47.188;8.896;2022-11-20T15:06:05;6.90;99.90
30678;DHT22;17437;47.188;8.896;2022-11-20T15:08:38;6.80;99.90
30678;DHT22;17437;47.188;8.896;2022-11-20T15:11:19;6.80;99.90
30678;DHT22;17437;47.188;8.896;2022-11-20T15:13:52;6.70;99.90
30678;DHT22;17437;47.188;8.896;2022-11-20T15:16:24;6.60;99.90
30678;DHT22;17437;47.188;8.896;2022-11-20T15:18:58;6.60;99.90
30678;DHT22;17437;47.188;8.896;2022-11-20T15:21:29;6.50;99.90
30678;DHT22;17437;47.188;8.896;2022-11-20T15:24:00;6.50;99.90
30678;DHT22;17437;47.188;8.896;2022-11-20T15:26:32;6.40;99.90
30678;DHT22;17437;47.188;8.896;2022-11-20T15:29:05;6.40;99.90
30678;DHT22;17437;47.188;8.896;2022-11-20T15:31:38;6.40;99.90
30678;DHT22;17437;47.188;8.896;2022-11-20T15:34:14;6.30;99.90
30678;DHT22;17437;47.188;8.896;2022-11-20T15:36:46;6.20;99.90
30678;DHT22;17437;47.188;8.896;2022-11-20T15:39:17;6.10;99.90
30678;DHT22;17437;47.188;8.896;2022-11-20T15:41:49;6.10;99.90
30678;DHT22;17437;47.188;8.896;2022-11-20T15:44:20;6.10;99.90
30678;DHT22;17437;47.188;8.896;2022-11-20T15:46:52;6.00;99.90
30678;DHT22;17437;47.188;8.896;2022-11-20T15:49:23;6.00;99.90
30678;DHT22;17437;47.188;8.896;2022-11-20T15:51:56;5.90;99.90
30678;DHT22;17437;47.188;8.896;2022-11-20T15:54:28;5.80;99.90
30678;DHT22;17437;47.188;8.896;2022-11-20T15:56:59;5.80;99.90
30678;DHT22;17437;47.188;8.896;2022-11-20T15:59:38;5.70;99.90
30678;DHT22;17437;47.188;8.896;2022-11-20T16:02:32;5.70;99.90
30678;DHT22;17437;47.188;8.896;2022-11-20T16:05:08;5.60;99.90
30678;DHT22;17437;47.188;8.896;2022-11-20T16:07:45;5.60;99.90
30678;DHT22;17437;47.188;8.896;2022-11-20T16:10:18;5.60;99.90
30678;DHT22;17437;47.188;8.896;2022-11-20T16:12:52;5.60;99.90
30678;DHT22;17437;47.188;8.896;2022-11-20T16:15:41;5.60;99.90
30678;DHT22;17437;47.188;8.896;2022-11-20T16:18:18;5.60;99.90
30678;DHT22;17437;47.188;8.896;2022-11-20T16:20:51;5.70;99.90
30678;DHT22;17437;47.188;8.896;2022-11-20T16:23:24;5.60;99.90
30678;DHT22;17437;47.188;8.896;2022-11-20T16:25:55;5.60;99.90
30678;DHT22;17437;47.188;8.896;2022-11-20T16:28:26;5.60;99.90
30678;DHT22;17437;47.188;8.896;2022-11-20T16:31:07;5.60;99.90
30678;DHT22;17437;47.188;8.896;2022-11-20T16:33:40;5.60;99.90
30678;DHT22;17437;47.188;8.896;2022-11-20T16:36:13;5.60;99.90
30678;DHT22;17437;47.188;8.896;2022-11-20T16:38:45;5.60;99.90
30678;DHT22;17437;47.188;8.896;2022-11-20T16:41:26;5.60;99.90
30678;DHT22;17437;47.188;8.896;2022-11-20T16:44:22;5.60;99.90
30678;DHT22;17437;47.188;8.896;2022-11-20T16:46:57;5.60;99.90
30678;DHT22;17437;47.188;8.896;2022-11-20T16:49:47;5.70;99.90